»·PEaware :: N777KS KAVX-KSBA

N777KS :: KAVX-KSBA

FLIGHT INFORMATION

Flight Status: Arrived
Operator: Privately registered:
United States
More flights under this callsign
Pilot: Kevin S. (26378)
Aircraft: SOCATA TBM-900
(TBM9)
More flights by this aircraft type
Origin: KAVX Catalina
United States
Destination: KSBA Santa Barbara Mun
United States
More flights between these airports :: More routes between these airports
Route: +
File this flight plan on PilotEdge
Remarks: Touring catalina then request coastal transition
Altitude:
(Current/Filed)
9,000ft
Speed:
(Current/Filed)
180kts
Departed: 31-Dec-19 06:20 PM
Arrived: 31-Dec-19 07:10 PM
Distance/Time
Traveled:
94nm/0:50
Distance/Time
To Go:
Arrived

Flight Plot

Page will automatically refresh every two minutes.

Flight plan parsing failed; only flown route is shown


Map Options




Map Legend


Flown Route
Filed Route
Departure Airport
Arrival Airport
Navaid (VOR, NDB)
Fix

Horizontal Profiles

Position Reports

Time Latitude Longitude Heading Altitude Ground
Speed
31-Dec-19 18:16 33.404377 -118.414708 258 1552ft 0kts
31-Dec-19 18:17 33.404377 -118.414708 258 1552ft 0kts
31-Dec-19 18:18 33.404374 -118.414732 262 1552ft 5kts
31-Dec-19 18:19 33.416374 -118.406360 341 1701ft 141kts
31-Dec-19 18:20 33.434979 -118.443282 291 1949ft 132kts
31-Dec-19 18:21 33.447924 -118.483244 290 2109ft 133kts
31-Dec-19 18:22 33.446432 -118.516552 164 2118ft 145kts
31-Dec-19 18:23 33.417423 -118.491279 201 2071ft 138kts
31-Dec-19 18:24 33.393114 -118.463956 108 2296ft 130kts
31-Dec-19 18:25 33.400830 -118.423239 60 1830ft 128kts
31-Dec-19 18:26 33.409514 -118.393075 149 2736ft 118kts
31-Dec-19 18:27 33.378381 -118.357790 139 4587ft 162kts
31-Dec-19 18:28 33.335810 -118.308970 135 4579ft 232kts
31-Dec-19 18:29 33.318718 -118.244059 62 4559ft 237kts
31-Dec-19 18:30 33.345881 -118.191109 55 4570ft 224kts
31-Dec-19 18:31 33.378624 -118.128431 48 4492ft 215kts
31-Dec-19 18:32 33.425407 -118.087868 32 4879ft 191kts
31-Dec-19 18:33 33.466695 -118.063322 6 6347ft 149kts
31-Dec-19 18:34 33.513532 -118.066677 356 6475ft 186kts
31-Dec-19 18:35 33.567852 -118.067016 358 6457ft 199kts
31-Dec-19 18:36 33.618123 -118.084876 311 6463ft 202kts
31-Dec-19 18:37 33.655397 -118.135839 316 6454ft 203kts
31-Dec-19 18:38 33.696586 -118.182591 322 6452ft 202kts
31-Dec-19 18:39 33.740713 -118.224732 322 6453ft 202kts
31-Dec-19 18:40 33.783683 -118.268838 319 6466ft 200kts
31-Dec-19 18:41 33.823795 -118.313835 322 6460ft 195kts
31-Dec-19 18:42 33.864550 -118.356496 317 6456ft 195kts
31-Dec-19 18:43 33.903752 -118.401546 323 6452ft 194kts
31-Dec-19 18:44 33.945497 -118.443103 335 6440ft 193kts
31-Dec-19 18:45 33.995030 -118.466350 340 6462ft 192kts
31-Dec-19 18:46 34.045094 -118.490524 342 6460ft 193kts
31-Dec-19 18:47 34.095760 -118.512556 343 6460ft 193kts
31-Dec-19 18:48 34.144773 -118.538893 337 6466ft 195kts
31-Dec-19 18:49 34.185895 -118.579612 302 6480ft 204kts
31-Dec-19 18:50 34.211291 -118.641356 302 6474ft 204kts
31-Dec-19 18:51 34.236264 -118.702078 301 6462ft 205kts
31-Dec-19 18:52 34.259529 -118.772237 280 5022ft 244kts
31-Dec-19 18:53 34.266724 -118.851345 279 4495ft 220kts
31-Dec-19 18:54 34.273222 -118.923709 279 4510ft 227kts
31-Dec-19 18:55 34.281042 -119.002377 279 4502ft 237kts
31-Dec-19 18:56 34.289474 -119.081615 280 4500ft 237kts
31-Dec-19 18:57 34.298050 -119.160836 280 4503ft 236kts
31-Dec-19 18:58 34.306290 -119.240038 280 4509ft 238kts
31-Dec-19 18:59 34.315104 -119.319896 280 4509ft 240kts
31-Dec-19 19:00 34.329568 -119.399133 286 4509ft 240kts
31-Dec-19 19:01 34.346710 -119.477500 286 4130ft 231kts
31-Dec-19 19:02 34.346411 -119.542440 250 2988ft 177kts
31-Dec-19 19:03 34.349232 -119.597462 282 2987ft 162kts
31-Dec-19 19:04 34.361614 -119.649162 291 2916ft 162kts
31-Dec-19 19:05 34.380962 -119.704277 294 2111ft 185kts
31-Dec-19 19:06 34.402055 -119.757461 296 2089ft 166kts
31-Dec-19 19:07 34.421963 -119.804819 304 801ft 140kts
31-Dec-19 19:08 34.427801 -119.838156 269 20ft 77kts
31-Dec-19 19:09 34.428490 -119.845601 62 15ft 0kts
31-Dec-19 19:10 34.431992 -119.837380 32 15ft 36kts

Navigation Log

Ident Type
Flight plan parsing failed, navigation log unavailable